createdAt,value
2017-10-30T00:01:56.653Z,5.20
2017-10-30T00:04:24.210Z,5.10
2017-10-30T00:06:51.791Z,5.10
2017-10-30T00:09:19.375Z,5.10
2017-10-30T00:11:46.950Z,5.10
2017-10-30T00:14:14.504Z,5.10
2017-10-30T00:16:42.062Z,5.10
2017-10-30T00:19:09.640Z,5.10
2017-10-30T00:21:37.971Z,5.10
2017-10-30T00:24:05.520Z,5.10
2017-10-30T00:26:33.083Z,5.10
2017-10-30T00:29:00.648Z,5.10
2017-10-30T00:31:28.205Z,5.00
2017-10-30T00:33:55.781Z,5.00
2017-10-30T00:36:23.358Z,5.00
2017-10-30T00:38:50.967Z,5.00
2017-10-30T00:41:18.526Z,4.90
2017-10-30T00:43:46.083Z,4.90
2017-10-30T00:46:13.646Z,4.90
2017-10-30T00:48:41.219Z,4.90
2017-10-30T00:51:08.782Z,4.90
2017-10-30T00:53:36.363Z,4.90
2017-10-30T00:56:03.926Z,4.90
2017-10-30T00:58:31.470Z,4.90
2017-10-30T01:00:59.030Z,4.90
2017-10-30T01:03:26.575Z,4.80
2017-10-30T01:05:54.138Z,4.80
2017-10-30T01:08:21.700Z,4.80
2017-10-30T01:10:49.285Z,4.80
2017-10-30T01:13:16.858Z,4.70
2017-10-30T01:15:44.442Z,4.70
2017-10-30T01:18:12.766Z,4.80
2017-10-30T01:20:40.329Z,4.70
2017-10-30T01:23:07.902Z,4.80
2017-10-30T01:25:35.490Z,4.70
2017-10-30T01:28:03.819Z,4.70
2017-10-30T01:30:31.372Z,4.70
2017-10-30T01:32:58.932Z,4.60
2017-10-30T01:35:26.510Z,4.60
2017-10-30T01:37:54.078Z,4.50
2017-10-30T01:40:21.629Z,4.50
2017-10-30T01:42:49.187Z,4.50
2017-10-30T01:45:16.756Z,4.50
2017-10-30T01:47:44.329Z,4.50
2017-10-30T01:50:11.898Z,4.50
2017-10-30T01:52:39.459Z,4.50
2017-10-30T01:55:07.005Z,4.50
2017-10-30T01:57:34.573Z,4.50
2017-10-30T02:00:02.142Z,4.50
2017-10-30T02:02:29.695Z,4.40
2017-10-30T02:04:57.268Z,4.40
2017-10-30T02:07:24.857Z,4.40
2017-10-30T02:09:52.442Z,4.40
2017-10-30T02:12:19.988Z,4.40
2017-10-30T02:14:47.575Z,4.40
2017-10-30T02:17:15.150Z,4.30
2017-10-30T02:19:42.758Z,4.30
2017-10-30T02:22:11.074Z,4.30
2017-10-30T02:24:38.697Z,4.20
2017-10-30T02:27:07.023Z,4.30
2017-10-30T02:29:34.606Z,4.20
2017-10-30T02:32:02.177Z,4.30
2017-10-30T02:34:29.745Z,4.20
2017-10-30T02:36:58.083Z,4.20
2017-10-30T02:39:25.669Z,4.20
2017-10-30T02:41:53.254Z,4.20
2017-10-30T02:44:21.559Z,4.00
2017-10-30T02:46:49.741Z,4.00
2017-10-30T02:49:17.307Z,4.00
2017-10-30T02:51:44.906Z,4.00
2017-10-30T02:54:12.491Z,4.00
2017-10-30T02:56:40.849Z,3.90
2017-10-30T02:59:09.190Z,3.90
2017-10-30T03:01:36.758Z,3.90
2017-10-30T03:04:04.353Z,4.00
2017-10-30T03:06:32.729Z,4.00
2017-10-30T03:09:01.091Z,4.00
2017-10-30T03:11:28.670Z,4.00
2017-10-30T03:13:57.075Z,4.00
2017-10-30T03:16:24.643Z,4.00
2017-10-30T03:18:52.209Z,4.00
2017-10-30T03:21:19.778Z,3.90
2017-10-30T03:23:47.388Z,3.90
2017-10-30T03:26:15.710Z,3.90
2017-10-30T03:28:43.273Z,3.90
2017-10-30T03:31:10.833Z,3.90
2017-10-30T03:33:39.172Z,3.90
2017-10-30T03:36:06.761Z,3.90
2017-10-30T03:38:34.339Z,3.90
2017-10-30T03:41:02.675Z,3.90
2017-10-30T03:43:30.246Z,3.90
2017-10-30T03:45:57.814Z,3.90
2017-10-30T03:48:25.369Z,3.90
2017-10-30T03:50:52.952Z,3.90
2017-10-30T03:53:21.274Z,3.90
2017-10-30T03:55:48.887Z,3.90
2017-10-30T03:58:17.226Z,3.80
2017-10-30T04:00:44.795Z,3.80
2017-10-30T04:03:12.331Z,3.80
2017-10-30T04:05:39.887Z,3.80
2017-10-30T04:08:07.445Z,3.80
2017-10-30T04:10:35.027Z,3.80
2017-10-30T04:13:02.574Z,3.80
2017-10-30T04:15:30.130Z,3.80
2017-10-30T04:17:57.683Z,3.70
2017-10-30T04:20:25.258Z,3.70
2017-10-30T04:22:52.803Z,3.70
2017-10-30T04:25:20.375Z,3.70
2017-10-30T04:27:47.932Z,3.70
2017-10-30T04:30:15.482Z,3.70
2017-10-30T04:32:43.093Z,3.70
2017-10-30T04:35:10.635Z,3.70
2017-10-30T04:37:38.234Z,3.70
2017-10-30T04:40:06.550Z,3.70
2017-10-30T04:42:34.167Z,3.70
2017-10-30T04:45:02.478Z,3.70
2017-10-30T04:47:30.034Z,3.60
2017-10-30T04:49:57.601Z,3.60
2017-10-30T04:52:25.157Z,3.60
2017-10-30T04:54:52.725Z,3.70
2017-10-30T04:57:20.302Z,3.70
2017-10-30T04:59:47.886Z,3.70
2017-10-30T05:02:15.435Z,3.60
2017-10-30T05:04:43.034Z,3.60
2017-10-30T05:07:11.330Z,3.60
2017-10-30T05:09:38.891Z,3.60
2017-10-30T05:12:06.454Z,3.60
2017-10-30T05:14:34.047Z,3.60
2017-10-30T05:17:01.618Z,3.60
2017-10-30T05:19:29.214Z,3.60
2017-10-30T05:21:57.535Z,3.60
2017-10-30T05:24:25.098Z,3.60
2017-10-30T05:26:52.687Z,3.60
2017-10-30T05:29:21.026Z,3.50
2017-10-30T05:31:48.595Z,3.50
2017-10-30T05:34:16.151Z,3.50
2017-10-30T05:36:43.711Z,3.50
2017-10-30T05:39:11.277Z,3.50
2017-10-30T05:41:38.851Z,3.50
2017-10-30T05:44:06.406Z,3.50
2017-10-30T05:46:33.991Z,3.40
2017-10-30T05:49:02.351Z,3.40
2017-10-30T05:51:29.898Z,3.40
2017-10-30T05:53:57.502Z,3.40
2017-10-30T05:56:25.844Z,3.40
2017-10-30T05:58:53.410Z,3.30
2017-10-30T06:01:20.999Z,3.40
2017-10-30T06:03:49.314Z,3.40
2017-10-30T06:06:16.877Z,3.30
2017-10-30T06:08:44.451Z,3.40
2017-10-30T06:11:12.020Z,3.40
2017-10-30T06:13:39.614Z,3.40
2017-10-30T06:16:07.939Z,3.50
2017-10-30T06:18:35.543Z,3.50
2017-10-30T06:21:03.096Z,3.50
2017-10-30T06:23:30.666Z,3.50
2017-10-30T06:25:58.211Z,3.60
2017-10-30T06:28:25.769Z,3.60
2017-10-30T06:30:53.320Z,3.60
2017-10-30T06:33:20.899Z,3.70
2017-10-30T06:35:48.442Z,3.70
2017-10-30T06:38:16.072Z,3.80
2017-10-30T06:40:43.671Z,3.80
2017-10-30T06:43:11.226Z,3.80
2017-10-30T06:45:38.798Z,3.90
2017-10-30T06:48:06.385Z,3.90
2017-10-30T06:50:34.737Z,4.00
2017-10-30T06:53:02.312Z,4.00
2017-10-30T06:55:30.656Z,4.20
2017-10-30T06:57:58.240Z,4.10
2017-10-30T07:00:25.797Z,4.10
2017-10-30T07:02:58.074Z,4.20
2017-10-30T07:05:25.641Z,4.20
2017-10-30T07:07:53.229Z,4.30
2017-10-30T07:10:20.814Z,4.30
2017-10-30T07:12:48.403Z,4.40
2017-10-30T07:15:16.020Z,4.50
2017-10-30T07:17:43.592Z,4.60
2017-10-30T07:20:11.166Z,4.70
2017-10-30T07:22:38.735Z,4.80
2017-10-30T07:25:06.308Z,4.90
2017-10-30T07:27:33.898Z,5.00
2017-10-30T07:30:01.608Z,5.10
2017-10-30T07:32:29.199Z,5.20
2017-10-30T07:34:56.762Z,5.30
2017-10-30T07:37:24.334Z,5.30
2017-10-30T07:39:52.671Z,5.40
2017-10-30T07:42:20.264Z,5.40
2017-10-30T07:44:47.833Z,5.50
2017-10-30T07:47:16.171Z,5.60
2017-10-30T07:49:43.735Z,5.60
2017-10-30T07:52:11.322Z,5.70
2017-10-30T07:54:38.927Z,5.70
2017-10-30T07:57:06.536Z,5.80
2017-10-30T07:59:34.154Z,5.90
2017-10-30T08:02:01.729Z,6.00
2017-10-30T08:04:29.281Z,6.10
2017-10-30T08:06:56.901Z,6.10
2017-10-30T08:09:25.252Z,6.30
2017-10-30T08:11:52.854Z,6.30
2017-10-30T08:14:20.438Z,6.40
2017-10-30T08:16:48.020Z,6.40
2017-10-30T08:19:15.618Z,6.40
2017-10-30T08:21:44.016Z,6.50
2017-10-30T08:24:11.621Z,6.50
2017-10-30T08:26:39.193Z,6.60
2017-10-30T08:29:06.825Z,6.60
2017-10-30T08:31:34.372Z,6.70
2017-10-30T08:34:01.981Z,6.80
2017-10-30T08:36:29.587Z,6.90
2017-10-30T08:38:57.191Z,7.00
2017-10-30T08:41:24.758Z,6.90
2017-10-30T08:43:52.356Z,7.10
2017-10-30T08:46:22.506Z,7.30
2017-10-30T08:48:50.101Z,7.20
2017-10-30T08:51:17.662Z,7.30
2017-10-30T08:53:45.233Z,7.30
2017-10-30T08:56:12.824Z,7.50
2017-10-30T08:58:41.398Z,7.60
2017-10-30T09:01:09.777Z,7.70
2017-10-30T09:03:38.668Z,7.80
2017-10-30T09:06:06.300Z,7.70
2017-10-30T09:08:33.877Z,7.90
2017-10-30T09:11:01.483Z,8.00
2017-10-30T09:13:29.040Z,8.00
2017-10-30T09:15:56.623Z,8.20
2017-10-30T09:18:24.196Z,8.30
2017-10-30T09:20:51.757Z,8.40
2017-10-30T09:23:19.366Z,8.50
2017-10-30T09:25:47.703Z,8.50
2017-10-30T09:28:15.290Z,8.50
2017-10-30T09:30:43.759Z,8.60
2017-10-30T09:33:11.339Z,8.60
2017-10-30T09:35:38.911Z,8.60
2017-10-30T09:38:06.505Z,8.70
2017-10-30T09:40:34.107Z,8.90
2017-10-30T09:43:01.712Z,9.10
2017-10-30T09:45:29.266Z,9.00
2017-10-30T09:47:56.907Z,9.00
2017-10-30T09:50:24.472Z,9.10
2017-10-30T09:52:52.048Z,9.20
2017-10-30T09:55:19.637Z,9.50
2017-10-30T09:57:47.249Z,9.70
2017-10-30T10:00:14.838Z,10.00
2017-10-30T10:02:42.446Z,10.20
2017-10-30T10:05:10.026Z,10.20
2017-10-30T10:07:37.686Z,10.40
2017-10-30T10:10:05.731Z,10.20
2017-10-30T10:12:34.372Z,10.40
2017-10-30T10:15:04.067Z,10.20
2017-10-30T10:17:32.049Z,10.20
2017-10-30T10:19:59.813Z,10.40
2017-10-30T10:22:29.377Z,10.60
2017-10-30T10:24:57.824Z,10.50
2017-10-30T10:27:26.200Z,10.50
2017-10-30T10:29:54.010Z,11.00
2017-10-30T10:32:21.847Z,11.40
2017-10-30T10:34:50.644Z,12.50
2017-10-30T10:37:18.439Z,12.50
2017-10-30T10:39:46.039Z,11.50
2017-10-30T10:42:13.723Z,11.50
2017-10-30T10:45:28.562Z,12.30
2017-10-30T10:47:56.154Z,12.20
2017-10-30T10:50:24.603Z,12.40
2017-10-30T10:52:52.193Z,12.30
2017-10-30T10:55:20.541Z,12.40
2017-10-30T10:57:48.680Z,12.40
2017-10-30T11:00:16.295Z,12.80
2017-10-30T11:02:44.688Z,12.30
2017-10-30T11:05:13.026Z,12.80
2017-10-30T11:07:40.667Z,12.80
2017-10-30T11:10:08.243Z,13.60
2017-10-30T11:12:35.840Z,14.30
2017-10-30T11:15:04.230Z,13.80
2017-10-30T11:17:32.671Z,14.10
2017-10-30T11:20:00.282Z,14.10
2017-10-30T11:22:27.854Z,13.90
2017-10-30T11:24:55.431Z,13.80
2017-10-30T11:27:22.983Z,13.50
2017-10-30T11:29:50.566Z,13.50
2017-10-30T11:32:18.124Z,12.70
2017-10-30T11:34:46.066Z,12.60
2017-10-30T11:37:13.699Z,12.30
2017-10-30T11:39:43.207Z,12.30
2017-10-30T11:42:11.664Z,12.30
2017-10-30T11:44:39.263Z,12.30
2017-10-30T11:47:12.893Z,13.10
2017-10-30T11:49:40.471Z,13.10
2017-10-30T11:52:08.038Z,13.60
2017-10-30T11:54:37.380Z,13.30
2017-10-30T11:57:05.930Z,13.20
2017-10-30T11:59:33.512Z,13.30
2017-10-30T12:02:01.884Z,13.20
2017-10-30T12:04:29.722Z,13.20
2017-10-30T12:06:57.315Z,13.10
2017-10-30T12:09:24.886Z,13.20
2017-10-30T12:11:53.250Z,14.10
2017-10-30T12:14:20.842Z,14.10
2017-10-30T12:16:49.186Z,14.00
2017-10-30T12:19:16.761Z,14.00
2017-10-30T12:21:45.106Z,14.30
2017-10-30T12:24:12.934Z,14.30
2017-10-30T12:26:40.690Z,14.30
2017-10-30T12:29:08.465Z,14.40
2017-10-30T12:31:36.024Z,14.60
2017-10-30T12:34:04.388Z,14.30
2017-10-30T12:36:32.715Z,14.50
2017-10-30T12:39:02.260Z,14.50
2017-10-30T12:41:29.870Z,14.50
2017-10-30T12:43:57.446Z,15.00
2017-10-30T12:46:25.118Z,15.20
2017-10-30T12:48:52.744Z,14.80
2017-10-30T12:51:22.391Z,13.40
2017-10-30T12:53:50.013Z,13.40
2017-10-30T12:56:18.359Z,13.10
2017-10-30T12:58:45.998Z,13.10
2017-10-30T13:01:13.621Z,12.90
2017-10-30T13:03:41.964Z,12.60
2017-10-30T13:06:09.561Z,12.60
2017-10-30T13:08:37.877Z,12.20
2017-10-30T13:11:05.456Z,12.20
2017-10-30T13:13:33.032Z,12.30
2017-10-30T13:16:00.621Z,12.20
2017-10-30T13:18:28.988Z,13.80
2017-10-30T13:20:56.578Z,13.70
2017-10-30T13:23:24.162Z,13.70
2017-10-30T13:25:51.733Z,13.40
2017-10-30T13:28:19.333Z,13.20
2017-10-30T13:30:47.686Z,12.90
2017-10-30T13:33:15.265Z,12.90
2017-10-30T13:35:43.629Z,12.70
2017-10-30T13:38:11.217Z,12.70
2017-10-30T13:40:39.552Z,12.30
2017-10-30T13:43:07.106Z,12.30
2017-10-30T13:45:34.680Z,12.20
2017-10-30T13:48:02.297Z,12.30
2017-10-30T13:50:29.910Z,12.20
2017-10-30T13:52:57.500Z,12.20
2017-10-30T13:55:25.836Z,12.00
2017-10-30T13:57:53.447Z,12.00
2017-10-30T14:00:21.787Z,11.70
2017-10-30T14:02:49.346Z,11.60
2017-10-30T14:05:16.897Z,11.60
2017-10-30T14:07:44.456Z,11.60
2017-10-30T14:10:12.023Z,11.80
2017-10-30T14:12:39.578Z,12.00
2017-10-30T14:15:07.149Z,12.10
2017-10-30T14:17:34.717Z,12.10
2017-10-30T14:20:02.295Z,12.20
2017-10-30T14:22:29.885Z,11.90
2017-10-30T14:24:58.824Z,11.60
2017-10-30T14:27:26.424Z,11.60
2017-10-30T14:29:54.002Z,11.40
2017-10-30T14:32:22.375Z,11.20
2017-10-30T14:34:50.769Z,11.10
2017-10-30T14:37:18.329Z,11.10
2017-10-30T14:39:46.643Z,11.20
2017-10-30T14:42:14.204Z,11.20
2017-10-30T14:44:41.827Z,11.20
2017-10-30T14:47:09.426Z,11.30
2017-10-30T14:49:37.010Z,11.30
2017-10-30T14:52:04.589Z,11.20
2017-10-30T14:54:32.964Z,11.10
2017-10-30T14:57:00.546Z,11.10
2017-10-30T14:59:28.122Z,11.00
2017-10-30T15:01:55.698Z,10.90
2017-10-30T15:04:23.288Z,10.90
2017-10-30T15:06:50.867Z,10.90
2017-10-30T15:09:18.448Z,10.80
2017-10-30T15:11:50.145Z,10.90
2017-10-30T15:14:17.739Z,10.90
2017-10-30T15:16:45.321Z,10.90
2017-10-30T15:19:14.128Z,11.10
2017-10-30T15:21:41.733Z,11.10
2017-10-30T15:24:09.303Z,11.20
2017-10-30T15:26:36.902Z,11.10
2017-10-30T15:29:04.464Z,11.10
2017-10-30T15:31:32.053Z,11.00
2017-10-30T15:33:59.651Z,10.90
2017-10-30T15:36:27.261Z,10.90
2017-10-30T15:38:54.850Z,10.90
2017-10-30T15:41:22.401Z,10.80
2017-10-30T15:43:50.001Z,10.80
2017-10-30T15:46:17.570Z,10.70
2017-10-30T15:48:45.911Z,10.70
2017-10-30T15:51:13.472Z,10.70
2017-10-30T15:53:41.050Z,10.70
2017-10-30T15:56:08.660Z,10.70
2017-10-30T15:58:36.225Z,10.70
2017-10-30T16:01:03.799Z,10.70
2017-10-30T16:03:31.362Z,10.70
2017-10-30T16:05:58.925Z,10.70
2017-10-30T16:08:26.521Z,10.60
2017-10-30T16:10:54.097Z,10.60
2017-10-30T16:13:22.461Z,10.50
2017-10-30T16:15:50.038Z,10.50
2017-10-30T16:18:18.403Z,10.40
2017-10-30T16:20:45.981Z,10.40
2017-10-30T16:23:14.303Z,10.30
2017-10-30T16:25:41.879Z,10.30
2017-10-30T16:28:09.454Z,10.30
2017-10-30T16:30:49.838Z,10.30
2017-10-30T16:33:17.398Z,10.20
2017-10-30T16:35:51.219Z,10.10
2017-10-30T16:38:18.773Z,9.90
2017-10-30T16:40:46.350Z,9.90
2017-10-30T16:43:13.963Z,9.90
2017-10-30T16:45:41.540Z,9.80
2017-10-30T16:48:09.902Z,9.70
2017-10-30T16:50:37.490Z,9.70
2017-10-30T16:53:05.057Z,9.60
2017-10-30T16:55:32.635Z,9.50
2017-10-30T16:58:00.198Z,9.50
2017-10-30T17:00:27.780Z,9.50
2017-10-30T17:02:55.347Z,9.40
2017-10-30T17:05:22.906Z,9.30
2017-10-30T17:07:50.463Z,9.30
2017-10-30T17:10:18.038Z,9.20
2017-10-30T17:12:45.593Z,9.20
2017-10-30T17:15:13.175Z,9.10
2017-10-30T17:17:41.524Z,8.90
2017-10-30T17:20:09.100Z,8.90
2017-10-30T17:22:36.686Z,8.70
2017-10-30T17:25:05.039Z,8.70
2017-10-30T17:27:32.660Z,8.60
2017-10-30T17:30:00.204Z,8.60
2017-10-30T17:32:27.769Z,8.50
2017-10-30T17:34:55.335Z,8.50
2017-10-30T17:37:22.887Z,8.40
2017-10-30T17:39:50.463Z,8.30
2017-10-30T17:42:18.009Z,8.30
2017-10-30T17:44:45.596Z,8.20
2017-10-30T17:47:13.163Z,8.10
2017-10-30T17:49:40.738Z,8.00
2017-10-30T17:52:08.327Z,7.90
2017-10-30T17:54:36.665Z,7.90
2017-10-30T17:57:04.238Z,7.80
2017-10-30T17:59:31.822Z,7.90
2017-10-30T18:02:00.203Z,7.80
2017-10-30T18:04:28.560Z,7.70
2017-10-30T18:06:56.138Z,7.70
2017-10-30T18:09:24.476Z,7.60
2017-10-30T18:11:52.050Z,7.60
2017-10-30T18:14:19.642Z,7.60
2017-10-30T18:16:48.007Z,7.50
2017-10-30T18:19:15.672Z,7.50
2017-10-30T18:21:43.239Z,7.40
2017-10-30T18:24:11.594Z,7.30
2017-10-30T18:26:39.201Z,7.30
2017-10-30T18:29:06.784Z,7.10
2017-10-30T18:31:34.354Z,7.10
2017-10-30T18:34:01.924Z,7.10
2017-10-30T18:36:29.545Z,7.10
2017-10-30T18:38:57.939Z,7.00
2017-10-30T18:41:25.506Z,6.90
2017-10-30T18:43:53.078Z,6.80
2017-10-30T18:46:20.663Z,6.80
2017-10-30T18:48:48.233Z,6.80
2017-10-30T18:51:15.804Z,6.80
2017-10-30T18:53:43.392Z,6.80
2017-10-30T18:56:17.164Z,6.80
2017-10-30T18:58:57.078Z,6.80
2017-10-30T19:01:26.106Z,6.70
2017-10-30T19:03:54.924Z,6.70
2017-10-30T19:06:28.617Z,6.60
2017-10-30T19:08:56.960Z,6.60
2017-10-30T19:11:27.027Z,6.60
2017-10-30T19:13:57.028Z,6.60
2017-10-30T19:16:28.608Z,6.60
2017-10-30T19:18:56.205Z,6.50
2017-10-30T19:21:26.643Z,6.50
2017-10-30T19:23:56.099Z,6.50
2017-10-30T19:26:27.331Z,6.50
2017-10-30T19:28:56.999Z,6.50
2017-10-30T19:31:26.621Z,6.50
2017-10-30T19:33:55.840Z,6.50
2017-10-30T19:36:26.413Z,6.40
2017-10-30T19:38:55.617Z,6.40
2017-10-30T19:41:25.880Z,6.50
2017-10-30T19:43:55.701Z,6.50
2017-10-30T19:46:30.381Z,6.50
2017-10-30T19:48:57.938Z,6.50
2017-10-30T19:51:27.027Z,6.50
2017-10-30T19:53:56.432Z,6.50
2017-10-30T19:56:27.309Z,6.60
2017-10-30T19:58:56.339Z,6.60
2017-10-30T20:01:26.430Z,6.60
2017-10-30T20:04:07.618Z,6.60
2017-10-30T20:09:22.029Z,6.50
2017-10-30T20:12:03.130Z,6.50
2017-10-30T20:14:35.296Z,6.50
2017-10-30T20:17:03.243Z,6.50
2017-10-30T20:19:32.464Z,6.50
2017-10-30T20:22:02.213Z,6.60
2017-10-30T20:24:34.259Z,6.60
2017-10-30T20:27:02.937Z,6.60
2017-10-30T20:29:33.188Z,6.60
2017-10-30T20:32:02.802Z,6.60
2017-10-30T20:34:37.031Z,6.60
2017-10-30T20:37:05.191Z,6.60
2017-10-30T20:39:33.119Z,6.60
2017-10-30T20:42:02.228Z,6.60
2017-10-30T20:44:32.922Z,6.60
2017-10-30T20:47:03.348Z,6.60
2017-10-30T20:49:31.208Z,6.60
2017-10-30T20:51:59.130Z,6.60
2017-10-30T20:54:31.035Z,6.60
2017-10-30T20:56:58.931Z,6.60
2017-10-30T20:59:26.813Z,6.50
2017-10-30T21:01:55.489Z,6.60
2017-10-30T21:04:23.373Z,6.60
2017-10-30T21:06:52.081Z,6.60
2017-10-30T21:09:20.292Z,6.60
2017-10-30T21:11:48.865Z,6.60
2017-10-30T21:14:16.798Z,6.60
2017-10-30T21:16:45.461Z,6.60
2017-10-30T21:19:13.526Z,6.60
2017-10-30T21:21:41.411Z,6.60
2017-10-30T21:24:09.360Z,6.60
2017-10-30T21:26:37.242Z,6.60
2017-10-30T21:29:05.147Z,6.60
2017-10-30T21:31:33.759Z,6.50
2017-10-30T21:34:01.377Z,6.50
2017-10-30T21:36:28.954Z,6.50
2017-10-30T21:38:56.538Z,6.50
2017-10-30T21:41:24.882Z,6.40
2017-10-30T21:43:52.463Z,6.40
2017-10-30T21:46:20.034Z,6.40
2017-10-30T21:48:48.366Z,6.30
2017-10-30T21:51:15.923Z,6.30
2017-10-30T21:53:43.512Z,6.30
2017-10-30T21:56:11.094Z,6.30
2017-10-30T21:58:39.556Z,6.20
2017-10-30T22:01:07.950Z,6.20
2017-10-30T22:03:36.283Z,6.10
2017-10-30T22:06:03.887Z,6.10
2017-10-30T22:08:32.223Z,5.90
2017-10-30T22:10:59.828Z,5.90
2017-10-30T22:13:28.448Z,5.90
2017-10-30T22:15:56.082Z,5.90
2017-10-30T22:18:24.407Z,5.70
2017-10-30T22:20:51.999Z,5.70
2017-10-30T22:23:19.597Z,5.70
2017-10-30T22:25:47.168Z,5.70
2017-10-30T22:28:14.735Z,5.70
2017-10-30T22:30:42.318Z,5.60
2017-10-30T22:33:09.903Z,5.60
2017-10-30T22:35:37.602Z,5.50
2017-10-30T22:38:05.166Z,5.50
2017-10-30T22:40:32.803Z,5.50
2017-10-30T22:43:00.385Z,5.40
2017-10-30T22:45:27.964Z,5.40
2017-10-30T22:47:55.551Z,5.30
2017-10-30T22:50:23.142Z,5.30
2017-10-30T22:52:50.724Z,5.30
2017-10-30T22:55:19.067Z,5.10
2017-10-30T22:57:46.753Z,5.10
2017-10-30T23:00:14.321Z,5.10
2017-10-30T23:02:42.677Z,4.90
2017-10-30T23:05:10.245Z,4.90
2017-10-30T23:07:37.822Z,4.80
2017-10-30T23:10:06.161Z,4.80
2017-10-30T23:12:33.717Z,4.70
2017-10-30T23:15:01.282Z,4.70
2017-10-30T23:17:28.868Z,4.70
2017-10-30T23:19:56.424Z,4.60
2017-10-30T23:22:23.990Z,4.50
2017-10-30T23:24:52.331Z,4.40
2017-10-30T23:27:19.886Z,4.40
2017-10-30T23:29:47.449Z,4.40
2017-10-30T23:32:15.020Z,4.40
2017-10-30T23:34:42.579Z,4.40
2017-10-30T23:37:10.167Z,4.40
2017-10-30T23:39:38.521Z,4.30
2017-10-30T23:42:06.103Z,4.30
2017-10-30T23:44:33.686Z,4.30
2017-10-30T23:47:02.009Z,4.20
2017-10-30T23:49:29.619Z,4.20
2017-10-30T23:51:57.935Z,4.20
2017-10-30T23:54:25.514Z,4.20
2017-10-30T23:56:53.088Z,4.20
2017-10-30T23:59:20.651Z,4.00
